Time;durP1;ratioP1;P1;durP2;ratioP2;P2;SDS_P1;SDS_P2;PMS_P1;PMS_P2;Temp;Humidity;BMP_temperature;BMP_pressure;BME280_temperature;BME280_humidity;BME280_pressure;Samples;Min_cycle;Max_cycle;Signal;HPM_P1;HPM_P2
2022/10/21 00:01:03;;;;;;;;;2.00;2.00;;;;;17.80;77.05;100286.19;4829578;29;45349;-79
2022/10/21 00:03:28;;;;;;;;;1.25;0.50;;;;;17.87;76.86;100298.28;4830573;29;45359;-79
2022/10/21 00:05:54;;;;;;;;;1.75;1.50;;;;;17.90;77.03;100309.75;4830095;29;45265;-78
2022/10/21 00:08:20;;;;;;;;;1.00;1.00;;;;;17.86;76.83;100294.72;4827611;29;45470;-78
2022/10/21 00:10:50;;;;;;;;;2.50;2.50;;;;;17.84;77.18;100302.06;4828408;29;45766;-78
2022/10/21 00:13:16;;;;;;;;;2.00;2.00;;;;;17.80;77.56;100286.19;4836326;29;45467;-79
2022/10/21 00:15:41;;;;;;;;;2.50;1.50;;;;;17.81;77.61;100283.38;4829771;29;45473;-79
2022/10/21 00:18:06;;;;;;;;;2.00;0.00;;;;;17.71;77.14;100268.78;4827959;29;48094;-79
2022/10/21 00:20:32;;;;;;;;;2.25;2.25;;;;;17.77;77.22;100282.72;4833103;29;45314;-79
2022/10/21 00:22:57;;;;;;;;;3.00;1.00;;;;;17.76;77.13;100280.13;4829065;29;45475;-78
2022/10/21 00:25:23;;;;;;;;;3.75;2.00;;;;;17.74;76.85;100272.13;4829091;29;49231;-78
2022/10/21 00:27:48;;;;;;;;;2.25;2.25;;;;;17.77;77.01;100268.34;4827346;29;45401;-78
2022/10/21 00:30:13;;;;;;;;;4.00;1.75;;;;;17.78;77.06;100268.25;4829082;29;45499;-78
2022/10/21 00:32:39;;;;;;;;;2.00;2.00;;;;;17.73;77.40;100261.44;4841679;29;45301;-78
2022/10/21 00:35:04;;;;;;;;;3.75;2.00;;;;;17.76;77.28;100267.50;4834321;29;45442;-78
2022/10/21 00:37:31;;;;;;;;;3.25;1.00;;;;;17.76;77.07;100272.88;4848441;29;48228;-78
2022/10/21 00:39:57;;;;;;;;;3.75;2.00;;;;;17.75;76.69;100273.84;4835585;29;45309;-78
2022/10/21 00:42:30;;;;;;;;;2.25;2.00;;;;;17.75;76.94;100273.84;4830671;29;45325;-79
2022/10/21 00:45:04;;;;;;;;;3.00;2.25;;;;;17.75;77.34;100264.91;4832351;29;45439;-78
2022/10/21 00:47:34;;;;;;;;;1.00;1.00;;;;;17.73;77.38;100261.44;4829121;29;45603;-78
2022/10/21 00:50:03;;;;;;;;;2.50;2.00;;;;;17.68;77.41;100252.81;4829729;29;45602;-78
2022/10/21 00:52:32;;;;;;;;;0.50;0.00;;;;;17.72;77.39;100257.00;4826316;29;45424;-78
2022/10/21 00:55:00;;;;;;;;;5.00;2.00;;;;;17.68;77.02;100242.00;4827757;29;45465;-78
2022/10/21 00:57:27;;;;;;;;;1.50;0.50;;;;;17.66;76.95;100241.22;4832515;29;46461;-78
2022/10/21 00:59:58;;;;;;;;;2.00;2.00;;;;;17.68;76.94;100234.78;4827948;29;45470;-78
2022/10/21 01:02:24;;;;;;;;;2.25;2.00;;;;;17.67;77.31;100229.47;4828795;29;45390;-79
2022/10/21 01:04:56;;;;;;;;;2.00;2.00;;;;;17.64;77.37;100229.69;4829032;29;45216;-78
2022/10/21 01:07:22;;;;;;;;;2.00;2.00;;;;;17.63;77.40;100223.44;4828054;29;46734;-78
2022/10/21 01:09:47;;;;;;;;;1.50;1.50;;;;;17.58;77.35;100210.25;4825689;29;45412;-79
2022/10/21 01:12:28;;;;;;;;;0.50;0.50;;;;;17.60;77.08;100207.44;4830010;29;45321;-79
2022/10/21 01:15:01;;;;;;;;;2.50;1.25;;;;;17.59;77.55;100203.00;4832749;29;45539;-78
2022/10/21 01:17:53;;;;;;;;;1.00;1.00;;;;;17.59;77.67;100198.50;4827980;29;47008;-79
2022/10/21 01:20:25;;;;;;;;;2.00;2.00;;;;;17.61;77.30;100201.09;4830095;29;46077;-79
2022/10/21 01:23:23;;;;;;;;;1.00;1.00;;;;;17.58;77.81;100177.03;4827888;29;45396;-78
2022/10/21 01:26:07;;;;;;;;;4.00;2.00;;;;;17.61;77.50;100182.22;4828649;29;45361;-78
2022/10/21 01:28:42;;;;;;;;;2.00;2.00;;;;;17.62;77.53;100183.06;4838863;29;47284;-78
2022/10/21 01:31:14;;;;;;;;;1.00;1.00;;;;;17.63;77.37;100193.75;4828606;29;45660;-78
2022/10/21 01:33:47;;;;;;;;;3.00;2.00;;;;;17.64;77.94;100200.88;4826313;29;45361;-79
2022/10/21 01:36:46;;;;;;;;;2.00;2.00;;;;;17.65;77.88;100202.59;4835389;29;45383;-79
2022/10/21 01:39:24;;;;;;;;;1.50;1.50;;;;;17.62;77.83;100199.25;4823417;29;45740;-78
2022/10/21 01:41:58;;;;;;;;;2.25;2.25;;;;;17.64;77.69;100205.41;4834694;29;45471;-78
2022/10/21 01:44:34;;;;;;;;;1.25;1.25;;;;;17.64;78.05;100202.69;4834619;29;45346;-78
2022/10/21 01:47:15;;;;;;;;;2.00;1.00;;;;;17.61;77.98;100201.09;4835092;29;45305;-78
2022/10/21 01:49:47;;;;;;;;;3.50;2.00;;;;;17.63;77.61;100209.09;4820857;29;45650;-78
2022/10/21 01:52:14;;;;;;;;;2.50;1.00;;;;;17.63;78.02;100209.94;4830629;29;45584;-78
2022/10/21 01:54:43;;;;;;;;;3.50;2.25;;;;;17.66;78.12;100233.13;4826890;29;45487;-78
2022/10/21 01:57:11;;;;;;;;;2.75;2.50;;;;;17.59;78.01;100243.50;4849540;29;45633;-78
2022/10/21 01:59:38;;;;;;;;;3.00;2.25;;;;;17.64;78.48;100273.75;4828385;29;46916;-78
2022/10/21 02:02:06;;;;;;;;;6.25;3.25;;;;;17.67;78.61;100281.63;4834862;29;46350;-78
2022/10/21 02:04:35;;;;;;;;;3.50;3.00;;;;;17.65;78.40;100294.34;4827600;29;45385;-79
2022/10/21 02:07:01;;;;;;;;;3.25;3.25;;;;;17.61;78.38;100311.75;4827150;29;45550;-79
2022/10/21 02:09:26;;;;;;;;;2.00;2.00;;;;;17.67;78.71;100337.44;4825352;29;46100;-78
2022/10/21 02:11:58;;;;;;;;;3.75;2.50;;;;;17.63;79.37;100335.94;4827817;29;45566;-79
2022/10/21 02:14:41;;;;;;;;;3.50;2.25;;;;;17.55;79.17;100326.50;4839773;29;45360;-79
2022/10/21 02:17:10;;;;;;;;;2.50;1.75;;;;;17.52;79.41;100304.28;4826800;29;45550;-79
2022/10/21 02:19:36;;;;;;;;;1.00;1.00;;;;;17.54;79.97;100305.03;4833181;29;47181;-79
2022/10/21 02:22:04;;;;;;;;;3.50;2.00;;;;;17.53;79.70;100295.22;4826631;29;45546;-79
2022/10/21 02:24:41;;;;;;;;;4.00;3.00;;;;;17.52;80.28;100280.84;4827255;29;45360;-79
2022/10/21 02:27:07;;;;;;;;;4.50;1.75;;;;;17.53;80.48;100266.38;4830705;29;45389;-79
2022/10/21 02:29:37;;;;;;;;;2.00;2.00;;;;;17.55;80.17;100266.28;4830954;29;45317;-79
2022/10/21 02:32:21;;;;;;;;;2.00;2.00;;;;;17.55;80.26;100240.16;4827613;29;45548;-78
2022/10/21 02:34:46;;;;;;;;;2.25;1.75;;;;;17.56;80.47;100232.94;4830311;29;45599;-78
2022/10/21 02:37:28;;;;;;;;;5.00;2.50;;;;;17.46;80.54;100205.72;4846441;29;45333;-79
2022/10/21 02:40:03;;;;;;;;;3.00;1.75;;;;;17.47;80.71;100171.50;4830165;29;45466;-78
2022/10/21 02:42:35;;;;;;;;;3.00;3.00;;;;;17.51;80.52;100159.53;4835726;29;45437;-78
2022/10/21 02:45:01;;;;;;;;;2.25;2.25;;;;;17.50;81.03;100157.81;4827989;29;45383;-78
2022/10/21 02:47:28;;;;;;;;;2.00;2.00;;;;;17.54;80.96;100152.09;4826952;29;45317;-78
2022/10/21 02:49:54;;;;;;;;;3.50;2.25;;;;;17.55;81.20;100144.84;4826438;29;45531;-78
2022/10/21 02:52:19;;;;;;;;;2.25;2.25;;;;;17.55;80.80;100142.16;4827882;29;45277;-78
2022/10/21 02:54:44;;;;;;;;;3.25;2.00;;;;;17.47;81.14;100137.28;4836035;29;45281;-78
2022/10/21 02:57:10;;;;;;;;;3.00;1.75;;;;;17.62;80.94;100156.91;4837614;29;45398;-78
2022/10/21 02:59:35;;;;;;;;;2.00;2.00;;;;;17.59;80.97;100151.75;4826002;29;46038;-78
2022/10/21 03:02:00;;;;;;;;;2.00;2.00;;;;;17.62;81.69;100165.03;4826486;29;45296;-79
2022/10/21 03:04:25;;;;;;;;;2.00;2.00;;;;;17.64;81.75;100151.41;4830241;29;45353;-78
2022/10/21 03:06:51;;;;;;;;;3.50;2.00;;;;;17.62;81.83;100131.78;4829328;29;45696;-78
2022/10/21 03:09:16;;;;;;;;;1.00;1.00;;;;;17.63;81.67;100147.88;4827759;29;47904;-79
2022/10/21 03:11:41;;;;;;;;;2.00;1.75;;;;;17.69;81.50;100163.63;4842718;29;45334;-79
2022/10/21 03:14:07;;;;;;;;;0.25;0.00;;;;;17.68;82.09;100164.59;4845812;29;45410;-78
2022/10/21 03:16:32;;;;;;;;;2.00;2.00;;;;;17.68;82.04;100177.22;4845525;29;45460;-78
2022/10/21 03:18:57;;;;;;;;;1.00;1.00;;;;;17.65;81.43;100180.16;4839105;29;45363;-78
2022/10/21 03:21:23;;;;;;;;;1.00;1.00;;;;;17.71;81.71;100215.66;4837130;29;45380;-78
2022/10/21 03:23:48;;;;;;;;;4.25;2.25;;;;;17.72;81.38;100225.47;4835649;29;45646;-78
2022/10/21 03:26:13;;;;;;;;;3.00;2.75;;;;;17.70;81.25;100219.31;4845793;29;46767;-78
2022/10/21 03:28:39;;;;;;;;;2.25;2.25;;;;;17.69;81.74;100212.22;4833789;29;45446;-78
2022/10/21 03:31:04;;;;;;;;;3.00;2.00;;;;;17.78;81.51;100230.44;4837739;29;45396;-78
2022/10/21 03:33:29;;;;;;;;;2.00;2.00;;;;;17.77;81.78;100219.75;4862943;29;45436;-78
2022/10/21 03:35:55;;;;;;;;;1.00;1.00;;;;;17.77;81.78;100207.16;4843367;29;45324;-78
2022/10/21 03:38:20;;;;;;;;;1.00;1.00;;;;;17.72;81.41;100192.22;4838382;29;46122;-78
2022/10/21 03:40:45;;;;;;;;;1.00;1.00;;;;;17.73;81.24;100189.41;4844374;29;45374;-78
2022/10/21 03:43:11;;;;;;;;;2.00;2.00;;;;;17.67;81.51;100178.19;4840817;29;45553;-78
2022/10/21 03:45:36;;;;;;;;;3.00;1.25;;;;;17.70;81.22;100192.34;4845516;29;45319;-78
2022/10/21 03:48:01;;;;;;;;;3.75;1.50;;;;;17.70;81.14;100196.88;4861711;29;49184;-78
2022/10/21 03:50:27;;;;;;;;;1.50;1.50;;;;;17.68;81.04;100193.44;4837534;29;46810;-78
2022/10/21 03:52:53;;;;;;;;;1.50;1.25;;;;;17.63;81.56;100187.50;4843812;29;45360;-78
2022/10/21 03:55:19;;;;;;;;;3.50;2.00;;;;;17.61;81.36;100201.09;4844208;29;45300;-78
2022/10/21 03:57:47;;;;;;;;;1.00;1.00;;;;;17.62;81.23;100205.50;4842527;29;45965;-78
2022/10/21 04:00:14;;;;;;;;;2.25;2.00;;;;;17.65;81.44;100197.19;4836358;29;45537;-78
2022/10/21 04:02:39;;;;;;;;;1.00;1.00;;;;;17.67;81.07;100205.19;4848107;29;45434;-78
2022/10/21 04:05:05;;;;;;;;;3.00;2.00;;;;;17.67;81.70;100216.84;4859133;29;45325;-78
2022/10/21 04:07:30;;;;;;;;;1.00;1.00;;;;;17.69;81.41;100219.44;4838140;29;45494;-78
2022/10/21 04:09:56;;;;;;;;;2.00;2.00;;;;;17.65;81.54;100209.84;4854137;29;45612;-78
2022/10/21 04:12:21;;;;;;;;;3.25;2.00;;;;;17.57;81.74;100192.34;4842678;29;45294;-78
2022/10/21 04:14:46;;;;;;;;;2.00;1.00;;;;;17.70;81.57;100222.03;4841369;29;52934;-78
2022/10/21 04:17:12;;;;;;;;;1.00;1.00;;;;;17.69;81.20;100222.13;4848161;29;45338;-78
2022/10/21 04:19:37;;;;;;;;;2.50;2.25;;;;;17.69;81.75;100216.72;4842146;29;45341;-78
2022/10/21 04:22:03;;;;;;;;;2.00;2.00;;;;;17.70;81.49;100213.06;4839394;29;45247;-78
2022/10/21 04:24:28;;;;;;;;;2.50;2.50;;;;;17.68;81.41;100212.31;4840751;29;45506;-78
2022/10/21 04:26:53;;;;;;;;;3.00;3.00;;;;;17.70;81.68;100215.78;4840518;29;45424;-78
2022/10/21 04:29:19;;;;;;;;;4.25;2.00;;;;;17.72;81.67;100216.53;4836246;29;45214;-78
2022/10/21 04:31:44;;;;;;;;;5.50;4.00;;;;;17.72;81.62;100214.66;4861925;29;45974;-78
2022/10/21 04:34:10;;;;;;;;;3.00;3.00;;;;;17.72;81.39;100211.13;4837032;29;54467;-79
2022/10/21 04:36:35;;;;;;;;;3.75;3.75;;;;;17.68;81.59;100202.38;4842268;29;46076;-78
2022/10/21 04:39:00;;;;;;;;;2.00;2.00;;;;;17.69;81.66;100206.81;4845514;29;45330;-79
2022/10/21 04:41:26;;;;;;;;;4.50;3.00;;;;;17.70;81.75;100210.38;4845159;29;45376;-78
2022/10/21 04:43:51;;;;;;;;;5.25;4.75;;;;;17.59;81.89;100195.81;4839474;29;45466;-77
2022/10/21 04:46:19;;;;;;;;;5.25;5.00;;;;;17.67;81.85;100214.13;4847824;29;45254;-77
2022/10/21 04:48:44;;;;;;;;;10.25;4.25;;;;;17.73;82.29;100218.25;4842684;29;45543;-77
2022/10/21 04:51:10;;;;;;;;;2.00;2.00;;;;;17.66;82.08;100204.34;4839464;29;45262;-77
2022/10/21 04:53:35;;;;;;;;;8.50;6.00;;;;;17.72;81.88;100217.38;4835036;29;46355;-77
2022/10/21 04:56:00;;;;;;;;;7.50;4.25;;;;;17.70;82.31;100207.66;4845691;29;45472;-77
2022/10/21 04:58:26;;;;;;;;;4.25;4.00;;;;;17.69;82.34;100206.81;4847234;29;45367;-78
2022/10/21 05:00:52;;;;;;;;;7.75;6.75;;;;;17.68;81.88;100212.31;4838247;29;45358;-78
2022/10/21 05:03:18;;;;;;;;;6.25;4.75;;;;;17.72;82.49;100219.22;4840815;29;45266;-78
2022/10/21 05:05:44;;;;;;;;;7.00;5.50;;;;;17.75;82.57;100221.72;4857431;29;48236;-78
2022/10/21 05:08:09;;;;;;;;;4.50;4.00;;;;;17.70;82.48;100199.56;4847766;29;45319;-78
2022/10/21 05:10:34;;;;;;;;;5.75;5.50;;;;;17.76;82.41;100201.84;4846185;29;45280;-78
2022/10/21 05:13:00;;;;;;;;;5.75;4.00;;;;;17.74;82.00;100207.34;4840696;29;45380;-78
2022/10/21 05:15:25;;;;;;;;;6.00;5.25;;;;;17.75;82.14;100209.06;4841782;29;46049;-78
2022/10/21 05:17:51;;;;;;;;;5.00;4.00;;;;;17.75;82.40;100209.06;4862597;29;45244;-78
2022/10/21 05:20:17;;;;;;;;;6.75;6.00;;;;;17.74;82.18;100211.88;4845097;29;45532;-78
2022/10/21 05:22:42;;;;;;;;;5.00;4.00;;;;;17.71;82.64;100215.66;4831857;29;45301;-78
2022/10/21 05:25:08;;;;;;;;;4.75;4.50;;;;;17.75;82.54;100225.25;4846846;29;45317;-78
2022/10/21 05:27:33;;;;;;;;;4.00;4.00;;;;;17.81;82.41;100236.59;4844274;29;45596;-78
2022/10/21 05:29:59;;;;;;;;;4.50;4.00;;;;;17.80;82.14;100229.50;4847704;29;45592;-79
2022/10/21 05:32:24;;;;;;;;;5.50;5.00;;;;;17.83;82.56;100237.38;4843112;29;45446;-78
2022/10/21 05:34:49;;;;;;;;;5.50;5.25;;;;;17.84;82.16;100231.88;4841573;29;45446;-78
2022/10/21 05:37:15;;;;;;;;;6.00;5.00;;;;;17.76;82.63;100221.59;4862205;29;45454;-78
2022/10/21 05:39:40;;;;;;;;;6.25;5.25;;;;;17.76;82.60;100218.03;4847377;29;45472;-78
2022/10/21 05:42:05;;;;;;;;;6.75;4.50;;;;;17.79;82.65;100215.09;4838979;29;45411;-79
2022/10/21 05:44:31;;;;;;;;;5.25;3.25;;;;;17.72;82.35;100205.72;4846351;29;46933;-78
2022/10/21 05:46:56;;;;;;;;;3.25;3.25;;;;;17.77;82.27;100217.94;4847648;29;45308;-78
2022/10/21 05:49:21;;;;;;;;;5.50;5.25;;;;;17.73;82.13;100208.31;4861988;29;46112;-78
2022/10/21 05:51:47;;;;;;;;;3.50;3.50;;;;;17.79;82.72;100223.19;4839671;29;45332;-78
2022/10/21 05:54:12;;;;;;;;;4.25;4.00;;;;;17.82;82.05;100231.09;4845735;29;45186;-78
2022/10/21 05:56:37;;;;;;;;;5.00;3.00;;;;;17.81;82.00;100226.69;4846821;29;45288;-78
2022/10/21 05:59:03;;;;;;;;;5.00;5.00;;;;;17.84;82.63;100236.38;4847168;29;45214;-78
2022/10/21 06:01:28;;;;;;;;;3.00;3.00;;;;;17.89;82.23;100253.16;4842761;29;45249;-78
2022/10/21 06:03:53;;;;;;;;;3.00;3.00;;;;;17.86;82.33;100262.31;4843660;29;49388;-78
2022/10/21 06:06:19;;;;;;;;;3.50;3.50;;;;;17.88;82.14;100271.19;4841146;29;45611;-78
2022/10/21 06:08:44;;;;;;;;;4.75;4.75;;;;;17.82;82.17;100268.03;4847049;29;45285;-78
2022/10/21 06:11:16;;;;;;;;;4.00;2.75;;;;;17.92;82.40;100304.25;4844483;29;45846;-79
2022/10/21 06:13:41;;;;;;;;;3.25;2.50;;;;;17.92;82.58;100305.09;4847154;29;45448;-78
2022/10/21 06:16:08;;;;;;;;;3.00;3.00;;;;;17.93;82.09;100320.34;4843913;29;45383;-78
2022/10/21 06:18:34;;;;;;;;;4.00;4.00;;;;;17.83;82.40;100300.31;4847299;29;45415;-78
2022/10/21 06:20:59;;;;;;;;;5.25;3.25;;;;;17.95;82.16;100315.69;4843903;29;45360;-78
2022/10/21 06:23:25;;;;;;;;;2.50;2.50;;;;;17.92;81.95;100321.28;4841717;29;45407;-78
2022/10/21 06:25:58;;;;;;;;;4.00;4.00;;;;;17.93;82.56;100327.56;4836914;29;45236;-78
2022/10/21 06:28:24;;;;;;;;;6.25;5.00;;;;;17.95;82.23;100329.19;4828518;29;45200;-78
2022/10/21 06:30:49;;;;;;;;;5.75;5.75;;;;;17.94;82.03;100318.50;4825312;29;45516;-78
2022/10/21 06:33:15;;;;;;;;;6.25;3.75;;;;;17.95;82.45;100344.53;4828454;29;45943;-78
2022/10/21 06:35:40;;;;;;;;;3.00;3.00;;;;;17.83;82.30;100338.13;4837940;29;45327;-78
2022/10/21 06:38:05;;;;;;;;;3.00;3.00;;;;;17.96;82.41;100365.19;4828484;29;45534;-78
2022/10/21 06:40:30;;;;;;;;;4.00;4.00;;;;;17.94;82.14;100362.59;4831759;29;45402;-78
2022/10/21 06:42:56;;;;;;;;;3.25;3.25;;;;;17.93;82.01;100357.28;4836710;29;46204;-78
2022/10/21 06:45:21;;;;;;;;;5.00;4.00;;;;;17.95;82.42;100367.00;4835888;29;45241;-78
2022/10/21 06:47:46;;;;;;;;;5.50;5.25;;;;;17.99;82.15;100370.34;4828672;29;45440;-78
2022/10/21 06:50:12;;;;;;;;;2.50;2.50;;;;;17.95;82.06;100364.28;4831551;29;45502;-78
2022/10/21 06:52:39;;;;;;;;;5.00;4.00;;;;;17.94;82.00;100362.59;4831467;29;46167;-78
2022/10/21 06:55:05;;;;;;;;;2.75;2.50;;;;;17.98;82.45;100357.81;4831070;29;45276;-78
2022/10/21 06:57:32;;;;;;;;;5.00;4.75;;;;;17.98;82.30;100360.53;4835698;29;45361;-78
2022/10/21 06:59:57;;;;;;;;;4.25;2.75;;;;;17.99;81.93;100364.09;4829169;29;45459;-78
2022/10/21 07:02:25;;;;;;;;;4.00;3.50;;;;;17.93;82.52;100343.78;4834747;29;51848;-79
2022/10/21 07:04:51;;;;;;;;;4.25;4.25;;;;;17.93;82.23;100339.22;4832346;29;45248;-78
2022/10/21 07:07:17;;;;;;;;;3.50;3.50;;;;;17.92;82.00;100336.63;4833029;29;45513;-77
2022/10/21 07:09:43;;;;;;;;;2.75;2.25;;;;;17.91;82.36;100334.94;4832833;29;45566;-78
2022/10/21 07:12:08;;;;;;;;;3.25;2.50;;;;;17.93;82.47;100350.03;4832613;29;46264;-78
2022/10/21 07:14:33;;;;;;;;;3.50;2.00;;;;;17.92;82.26;100363.63;4829374;29;45904;-78
2022/10/21 07:16:59;;;;;;;;;3.00;3.00;;;;;17.91;82.43;100378.13;4828158;29;45428;-78
2022/10/21 07:19:24;;;;;;;;;3.50;3.50;;;;;17.92;82.46;100396.03;4831713;29;45562;-78
2022/10/21 07:21:50;;;;;;;;;2.75;2.75;;;;;17.91;82.70;100411.38;4821807;29;45954;-77
2022/10/21 07:24:16;;;;;;;;;5.75;4.50;;;;;17.88;82.91;100402.63;4830677;29;45397;-77
2022/10/21 07:26:41;;;;;;;;;5.25;4.25;;;;;17.90;83.00;100411.50;4829378;29;45463;-76
2022/10/21 07:29:07;;;;;;;;;5.75;4.25;;;;;17.82;82.75;100395.78;4828993;29;45462;-78
2022/10/21 07:31:35;;;;;;;;;2.50;1.50;;;;;17.87;82.70;100371.19;4827503;29;45344;-77
2022/10/21 07:34:02;;;;;;;;;5.25;4.50;;;;;17.84;82.69;100376.78;4829090;29;45816;-77
2022/10/21 07:36:30;;;;;;;;;3.75;3.75;;;;;17.86;82.82;100408.09;4837197;29;45506;-77
2022/10/21 07:38:59;;;;;;;;;4.50;3.00;;;;;17.87;82.37;100412.56;4817133;29;45455;-77
2022/10/21 07:41:30;;;;;;;;;1.50;1.50;;;;;17.87;82.45;100420.66;4833026;29;45519;-78
2022/10/21 07:43:57;;;;;;;;;4.50;3.00;;;;;17.89;82.64;100417.84;4828780;29;45369;-78
2022/10/21 07:46:22;;;;;;;;;3.75;2.00;;;;;17.90;82.39;100425.84;4827769;29;45461;-77
2022/10/21 07:48:48;;;;;;;;;4.00;4.00;;;;;17.90;82.64;100425.84;4827532;29;45436;-77
2022/10/21 07:51:16;;;;;;;;;2.75;2.75;;;;;17.83;82.16;100408.31;4828881;29;45602;-78
2022/10/21 07:53:42;;;;;;;;;2.00;2.00;;;;;17.85;82.45;100413.63;4835992;29;45357;-78
2022/10/21 07:56:14;;;;;;;;;3.50;2.00;;;;;17.83;82.12;100413.72;4835937;29;45916;-78
2022/10/21 07:58:40;;;;;;;;;3.00;3.00;;;;;17.81;82.80;100417.47;4821524;29;45537;-78
2022/10/21 08:01:06;;;;;;;;;2.00;2.00;;;;;17.79;82.81;100417.56;4828512;29;45561;-78
2022/10/21 08:03:32;;;;;;;;;3.25;2.00;;;;;17.79;82.42;100417.56;4828698;29;45407;-78
2022/10/21 08:05:58;;;;;;;;;3.75;2.50;;;;;17.75;82.56;100403.41;4828399;29;45475;-78
2022/10/21 08:08:24;;;;;;;;;3.75;1.00;;;;;17.80;83.11;100421.16;4827022;29;45328;-78
2022/10/21 08:10:53;;;;;;;;;1.00;1.00;;;;;17.79;82.55;100414.88;4826921;29;45380;-78
2022/10/21 08:13:18;;;;;;;;;1.75;1.75;;;;;17.83;82.92;100429.91;4832512;29;45539;-78
2022/10/21 08:15:46;;;;;;;;;2.75;2.75;;;;;17.81;82.88;100421.06;4833521;29;45448;-78
2022/10/21 08:18:12;;;;;;;;;2.00;2.00;;;;;17.82;82.81;100416.50;4831974;29;45524;-78
2022/10/21 08:20:42;;;;;;;;;2.25;2.25;;;;;17.84;82.89;100425.38;4829027;29;47466;-78
2022/10/21 08:23:09;;;;;;;;;5.00;2.50;;;;;17.87;83.21;100423.34;4823084;29;45691;-78
2022/10/21 08:25:34;;;;;;;;;4.25;3.25;;;;;17.87;83.45;100427.91;4827551;29;46850;-78
2022/10/21 08:28:00;;;;;;;;;2.00;1.50;;;;;17.90;83.49;100430.41;4831512;29;45308;-78
2022/10/21 08:30:28;;;;;;;;;4.50;1.50;;;;;17.88;83.37;100435.91;4837927;29;46075;-80
2022/10/21 08:32:55;;;;;;;;;1.50;1.50;;;;;17.92;83.85;100433.84;4831137;29;45334;-80
2022/10/21 08:35:20;;;;;;;;;1.50;1.00;;;;;17.88;84.06;100413.44;4836002;29;45431;-78
2022/10/21 08:37:47;;;;;;;;;2.00;2.00;;;;;17.90;83.53;100423.16;4828911;29;46401;-78
2022/10/21 08:40:13;;;;;;;;;0.25;0.25;;;;;17.97;84.38;100429.00;4827900;29;45528;-78
2022/10/21 08:42:41;;;;;;;;;4.75;3.50;;;;;17.95;83.96;100434.50;4836672;29;45591;-78
2022/10/21 08:45:30;;;;;;;;;2.00;2.00;;;;;17.92;84.35;100426.59;4827816;29;45429;-78
2022/10/21 08:48:00;;;;;;;;;2.75;2.75;;;;;17.97;84.47;100429.00;4819349;29;45907;-78
2022/10/21 08:50:38;;;;;;;;;3.25;3.25;;;;;17.94;84.67;100418.41;4825858;29;46921;-78
2022/10/21 08:53:23;;;;;;;;;3.25;1.50;;;;;18.02;84.62;100434.09;4824010;29;46051;-78
2022/10/21 08:55:51;;;;;;;;;3.50;2.50;;;;;18.06;84.37;100436.47;4827587;29;45392;-78
2022/10/21 08:58:22;;;;;;;;;3.00;2.25;;;;;18.07;84.98;100440.91;4827976;29;45294;-78
2022/10/21 09:01:21;;;;;;;;;2.50;2.50;;;;;18.13;84.51;100445.88;4825513;29;46077;-78
2022/10/21 09:04:02;;;;;;;;;4.50;4.50;;;;;18.15;84.81;100449.34;4836414;29;45501;-76
2022/10/21 09:06:40;;;;;;;;;4.50;3.25;;;;;18.14;85.29;100438.63;4823345;29;46016;-79
2022/10/21 09:09:14;;;;;;;;;4.50;3.25;;;;;18.20;84.87;100438.22;4826077;29;45512;-79
2022/10/21 09:11:56;;;;;;;;;4.75;2.50;;;;;18.26;85.81;100442.31;4826057;29;47099;-79
2022/10/21 09:14:28;;;;;;;;;2.75;2.75;;;;;18.33;85.96;100441.81;4824569;29;45639;-79
2022/10/21 09:17:06;;;;;;;;;3.50;3.50;;;;;18.34;85.05;100429.16;4825823;29;45486;-79
2022/10/21 09:19:57;;;;;;;;;6.25;5.50;;;;;18.38;84.94;100446.88;4837016;29;45974;-78
2022/10/21 09:22:37;;;;;;;;;4.75;4.75;;;;;18.36;85.01;100432.63;4826080;29;45408;-79
2022/10/21 09:25:26;;;;;;;;;5.00;5.00;;;;;18.44;85.28;100449.19;4827630;29;45354;-79
2022/10/21 09:27:51;;;;;;;;;4.00;4.00;;;;;18.40;84.70;100433.28;4826314;29;45345;-79
2022/10/21 09:30:21;;;;;;;;;5.00;3.75;;;;;18.49;85.29;100443.41;4829467;29;45381;-78
2022/10/21 09:32:51;;;;;;;;;8.00;6.00;;;;;18.54;85.40;100451.22;4826851;29;46010;-79
2022/10/21 09:35:22;;;;;;;;;5.00;4.25;;;;;18.58;85.32;100447.34;4829925;29;45469;-79
2022/10/21 09:37:57;;;;;;;;;5.25;4.50;;;;;18.61;84.98;100441.69;4826031;29;47060;-79
2022/10/21 09:40:25;;;;;;;;;3.75;3.75;;;;;18.62;85.17;100440.72;4824349;29;45802;-79
2022/10/21 09:42:57;;;;;;;;;3.75;3.75;;;;;18.60;84.43;100435.44;4829493;29;45911;-79
2022/10/21 09:45:40;;;;;;;;;4.00;4.00;;;;;18.59;84.81;100433.69;4825182;29;45418;-79
2022/10/21 09:48:18;;;;;;;;;2.75;2.75;;;;;18.67;85.19;100434.00;4825036;29;45348;-79
2022/10/21 09:51:05;;;;;;;;;3.75;3.75;;;;;18.65;85.18;100435.09;4826484;29;45377;-80
2022/10/21 09:53:36;;;;;;;;;3.25;2.75;;;;;18.70;84.95;100432.94;4826102;29;46163;-79
2022/10/21 09:56:05;;;;;;;;;4.75;4.75;;;;;18.77;84.77;100442.34;4827085;29;45645;-79
2022/10/21 09:58:36;;;;;;;;;5.00;5.00;;;;;18.81;84.56;100443.84;4823938;29;46743;-79
2022/10/21 10:01:03;;;;;;;;;6.00;5.00;;;;;18.78;83.96;100425.16;4829990;29;45429;-78
2022/10/21 10:03:44;;;;;;;;;4.75;4.50;;;;;18.81;84.35;100429.44;4834612;29;46591;-78
2022/10/21 10:06:10;;;;;;;;;6.75;5.50;;;;;18.87;84.25;100445.28;4826551;29;45512;-78
2022/10/21 10:08:40;;;;;;;;;6.00;4.75;;;;;18.96;84.08;100454.56;4820998;29;45303;-78
2022/10/21 10:11:08;;;;;;;;;3.50;3.50;;;;;18.99;83.63;100451.63;4839609;29;45478;-78
2022/10/21 10:13:38;;;;;;;;;10.00;4.25;;;;;19.01;84.12;100453.28;4837436;29;46180;-78
2022/10/21 10:16:24;;;;;;;;;6.75;5.00;;;;;19.04;84.17;100447.66;4828149;29;45435;-78
2022/10/21 10:18:52;;;;;;;;;6.75;5.75;;;;;19.00;83.70;100432.59;4830533;29;45391;-78
2022/10/21 10:21:21;;;;;;;;;4.50;4.50;;;;;19.04;84.05;100444.06;4835643;29;45447;-78
2022/10/21 10:23:54;;;;;;;;;0.75;0.75;;;;;19.10;83.19;100457.16;4832244;29;45407;-78
2022/10/21 10:26:30;;;;;;;;;5.00;5.00;;;;;19.08;83.64;100448.28;4835304;29;45856;-80
2022/10/21 10:29:25;;;;;;;;;7.00;5.50;;;;;19.19;84.19;100456.47;4823544;29;45982;-80
2022/10/21 10:31:56;;;;;;;;;5.00;5.00;;;;;19.22;84.04;100452.69;4823548;29;45435;-79
2022/10/21 10:34:35;;;;;;;;;6.25;5.25;;;;;19.24;83.68;100446.19;4826376;29;46188;-79
2022/10/21 10:37:18;;;;;;;;;4.75;4.75;;;;;19.32;83.02;100456.44;4826329;29;45473;-78
2022/10/21 10:39:48;;;;;;;;;4.50;4.00;;;;;19.36;83.20;100457.06;4832868;29;45334;-79
2022/10/21 10:42:23;;;;;;;;;4.25;3.25;;;;;19.39;82.96;100452.28;4834627;29;46295;-79
2022/10/21 10:44:55;;;;;;;;;1.75;1.00;;;;;19.34;82.58;100440.09;4845359;29;46014;-79
2022/10/21 10:47:34;;;;;;;;;2.75;2.75;;;;;19.36;81.95;100441.72;4825997;29;45618;-79
2022/10/21 10:49:59;;;;;;;;;4.25;4.25;;;;;19.41;82.25;100447.66;4838468;29;45416;-79
2022/10/21 10:52:25;;;;;;;;;4.25;3.75;;;;;19.46;81.74;100451.84;4834112;29;45516;-79
2022/10/21 10:55:09;;;;;;;;;2.50;2.50;;;;;19.47;82.24;100446.31;4825860;29;46074;-79
2022/10/21 10:57:35;;;;;;;;;5.25;3.75;;;;;19.48;81.05;100448.06;4838173;29;45408;-79
2022/10/21 11:00:13;;;;;;;;;5.50;3.25;;;;;19.45;80.65;100442.88;4828275;29;45378;-78
2022/10/21 11:02:47;;;;;;;;;5.25;4.25;;;;;19.50;80.45;100448.78;4827673;29;45460;-78
2022/10/21 11:05:35;;;;;;;;;2.75;2.75;;;;;19.52;79.84;100446.84;4825685;29;45447;-79
2022/10/21 11:08:12;;;;;;;;;5.00;5.00;;;;;19.48;80.64;100441.75;4824827;29;46430;-78
2022/10/21 11:10:44;;;;;;;;;3.00;3.00;;;;;19.54;80.07;100439.44;4824972;29;45430;-79
2022/10/21 11:13:22;;;;;;;;;3.00;3.00;;;;;19.54;80.24;100438.59;4828812;29;45224;-79
2022/10/21 11:16:00;;;;;;;;;2.75;2.75;;;;;19.61;79.76;100439.84;4839425;29;45456;-79
2022/10/21 11:18:31;;;;;;;;;4.00;2.75;;;;;19.62;79.25;100447.00;4826781;29;45521;-79
2022/10/21 11:21:02;;;;;;;;;2.75;2.75;;;;;19.65;78.21;100449.50;4835323;29;45537;-79
2022/10/21 11:23:46;;;;;;;;;4.75;3.25;;;;;19.67;78.15;100442.09;4829290;29;45298;-79
2022/10/21 11:26:17;;;;;;;;;2.00;2.00;;;;;19.69;77.56;100434.72;4838321;29;45551;-79
2022/10/21 11:29:04;;;;;;;;;4.00;3.00;;;;;19.67;77.38;100435.84;4837287;29;45588;-79
2022/10/21 11:31:46;;;;;;;;;4.25;2.50;;;;;19.69;77.64;100445.56;4830637;29;45424;-78
2022/10/21 11:34:24;;;;;;;;;2.00;2.00;;;;;19.73;77.45;100438.06;4829987;29;45237;-78